Accueil
METAR-TAF:

METAR-TAF

Aéroports :

Aéroport de Liepāja

Liepāja, Lettonie

latitude: 56-31N, longitude: 021-05E, altitude: 5 m

Observation

Le bulletin a été fait il y a 21 minutes, à 04:20 UTC
Vent 14 kt de ouest/sud-ouest
Température 14°C
Humidité 67%
Pression 1015 hPa
Visibilité 10 km ou plus

METAR: EVLA 130420Z AUTO 24014KT 9999 FEW024/// 14/08 Q1015

Heure: 07:41 (04:41 UTC)

Prévision

Le bulletin a été fait il y a 2 heures et 35 minutes, à 02:06 UTC
Prévision valable du 13 à 03 UTC au 14 à 03 UTC
Vent 12 kt de sud-ouest
Visibilité 10 km ou plus
Nuages épars à une hauteur de 2500 ft
Temporairement
du 13 à 08 UTC au 13 à 12 UTC
Nuages épars à une hauteur de 2500 ft, Cumulonimbus.
Probabilité 40% :
Temporairement
du 13 à 09 UTC au 13 à 12 UTC
orage,

TAF: EVLA 130206Z 1303/1403 23012KT 9999 SCT025 TEMPO 1308/1312 SCT025CB PROB40 TEMPO 1309/1312 TS

Observations et prévisions météorologiques de plus de 4000 aéroports (messages METAR et TAF).

Les stations disponibles sont représentées par des disques jaunes et rouges sur la carte.

Passer la souris dessus pour voir le nom de la station.

Cliquer dessus pour voir les observations et prévisions météorologiques.

Pour changer de carte: cliquez sur les boutons verts avec une croix noire pour zoomer, sur le bouton vert avec un tiret pour effectuer un zoom arrière, ou sur les flèches vertes pour les cartes adjacentes.


METAR-TAF: